Time;durP1;ratioP1;P1;durP2;ratioP2;P2;SDS_P1;SDS_P2;PMS_P1;PMS_P2;Temp;Humidity;BMP_temperature;BMP_pressure;BME280_temperature;BME280_humidity;BME280_pressure;Samples;Min_cycle;Max_cycle;Signal;HPM_P1;HPM_P2
2022/04/13 00:01:35;;;;;;;8.97;7.20;;;11.10;52.50;;;;;;5118567;28;20572;-73
2022/04/13 00:04:01;;;;;;;11.20;8.30;;;11.10;53.30;;;;;;5118411;28;20470;-74
2022/04/13 00:06:29;;;;;;;11.17;8.13;;;11.10;53.30;;;;;;5118052;28;20964;-73
2022/04/13 00:08:56;;;;;;;9.60;8.20;;;11.10;53.50;;;;;;5118421;28;20755;-73
2022/04/13 00:11:23;;;;;;;9.43;7.20;;;11.10;53.80;;;;;;5118224;28;20852;-73
2022/04/13 00:13:50;;;;;;;10.03;8.07;;;11.00;53.80;;;;;;5117933;28;20477;-73
2022/04/13 00:16:17;;;;;;;10.20;8.87;;;11.10;54.50;;;;;;5117920;28;20444;-73
2022/04/13 00:18:44;;;;;;;11.47;8.40;;;11.00;54.50;;;;;;5117964;28;20444;-73
2022/04/13 00:21:10;;;;;;;12.50;7.83;;;11.00;54.90;;;;;;5118176;28;20761;-74
2022/04/13 00:23:38;;;;;;;11.30;8.23;;;10.90;55.00;;;;;;5118072;28;20464;-73
2022/04/13 00:26:05;;;;;;;11.50;7.70;;;10.90;55.60;;;;;;5118077;28;20484;-73
2022/04/13 00:28:32;;;;;;;11.80;7.47;;;10.90;56.00;;;;;;5117597;28;20525;-74
2022/04/13 00:30:59;;;;;;;15.60;8.10;;;10.80;56.10;;;;;;5117922;28;20448;-74
2022/04/13 00:33:25;;;;;;;10.57;7.60;;;10.80;56.10;;;;;;5117945;28;20464;-74
2022/04/13 00:35:54;;;;;;;10.27;8.17;;;10.80;57.10;;;;;;5117677;28;20491;-74
2022/04/13 00:38:22;;;;;;;10.97;7.97;;;10.70;57.30;;;;;;5117786;28;20452;-74
2022/04/13 00:40:50;;;;;;;11.33;8.33;;;10.70;58.00;;;;;;5117935;28;20453;-73
2022/04/13 00:43:17;;;;;;;11.60;8.63;;;10.70;58.30;;;;;;5117744;28;20467;-73
2022/04/13 00:45:45;;;;;;;11.20;7.90;;;10.60;58.60;;;;;;5117775;28;20467;-73
2022/04/13 00:48:20;;;;;;;11.50;8.93;;;10.60;58.80;;;;;;5117692;28;20464;-74
2022/04/13 00:50:46;;;;;;;10.67;8.37;;;10.50;59.40;;;;;;5117344;28;20440;-74
2022/04/13 00:53:15;;;;;;;10.03;7.50;;;10.50;60.20;;;;;;5117553;28;20471;-74
2022/04/13 00:55:44;;;;;;;8.63;7.67;;;10.50;60.60;;;;;;5116794;28;20476;-73
2022/04/13 00:58:14;;;;;;;11.07;7.50;;;10.50;61.20;;;;;;5117255;28;20479;-74
2022/04/13 01:00:48;;;;;;;9.93;8.47;;;10.50;61.90;;;;;;5117963;28;20827;-72
2022/04/13 01:03:18;;;;;;;12.30;8.87;;;10.40;62.30;;;;;;5117268;28;20451;-73
2022/04/13 01:05:47;;;;;;;11.80;8.47;;;10.40;63.80;;;;;;5118133;28;20463;-72
2022/04/13 01:08:15;;;;;;;10.73;8.30;;;10.40;64.60;;;;;;5117053;28;20790;-74
2022/04/13 01:10:43;;;;;;;10.40;8.60;;;10.40;65.50;;;;;;5117109;28;20464;-74
2022/04/13 01:13:09;;;;;;;11.00;8.00;;;10.40;65.30;;;;;;5116978;28;20539;-73
2022/04/13 01:15:38;;;;;;;12.70;8.93;;;10.30;66.50;;;;;;5116895;28;20456;-74
2022/04/13 01:18:05;;;;;;;13.80;9.07;;;10.30;67.60;;;;;;5117050;28;20448;-74
2022/04/13 01:20:31;;;;;;;10.53;7.90;;;10.30;68.40;;;;;;5116620;28;20460;-73
2022/04/13 01:22:59;;;;;;;13.80;8.87;;;10.20;69.30;;;;;;5116828;28;20513;-74
2022/04/13 01:25:27;;;;;;;13.00;8.97;;;10.20;70.70;;;;;;5116835;28;20453;-76
2022/04/13 01:27:54;;;;;;;12.13;9.17;;;10.20;71.80;;;;;;5116623;28;20853;-74
2022/04/13 01:30:23;;;;;;;12.00;9.47;;;10.20;72.30;;;;;;5116658;28;20456;-74
2022/04/13 01:32:51;;;;;;;10.40;8.13;;;10.20;73.10;;;;;;5116677;28;20530;-74
2022/04/13 01:35:18;;;;;;;9.90;8.17;;;10.10;73.80;;;;;;5116618;28;20452;-74
2022/04/13 01:37:44;;;;;;;9.90;8.70;;;10.10;74.10;;;;;;5116897;28;20755;-74
2022/04/13 01:40:13;;;;;;;14.10;9.13;;;10.10;75.30;;;;;;5116648;28;20525;-74
2022/04/13 01:42:39;;;;;;;11.10;8.50;;;10.10;76.10;;;;;;5116118;28;20551;-74
2022/04/13 01:45:07;;;;;;;11.00;8.87;;;10.10;77.70;;;;;;5116475;28;20479;-74
2022/04/13 01:47:34;;;;;;;10.67;8.70;;;10.00;77.80;;;;;;5116248;28;20487;-74
2022/04/13 01:50:00;;;;;;;13.20;9.03;;;10.00;78.70;;;;;;5116573;28;20521;-74
2022/04/13 01:52:27;;;;;;;10.83;8.90;;;9.90;81.40;;;;;;5116553;28;20460;-74
2022/04/13 01:54:54;;;;;;;11.20;8.50;;;9.90;81.80;;;;;;5116138;28;20513;-74
2022/04/13 01:57:23;;;;;;;13.47;8.93;;;9.90;83.10;;;;;;5116314;28;20873;-74
2022/04/13 01:59:49;;;;;;;11.70;8.77;;;9.90;84.00;;;;;;5116348;28;20459;-75
2022/04/13 02:02:17;;;;;;;11.50;9.33;;;9.90;84.90;;;;;;5116283;28;20440;-75
2022/04/13 02:04:44;;;;;;;11.57;8.30;;;9.90;86.00;;;;;;5116232;28;20483;-75
2022/04/13 02:07:11;;;;;;;9.80;8.80;;;9.90;86.90;;;;;;5115429;28;20476;-74
2022/04/13 02:09:37;;;;;;;13.33;8.83;;;9.90;88.30;;;;;;5116506;28;20460;-74
2022/04/13 02:12:05;;;;;;;10.00;8.13;;;9.90;89.30;;;;;;5116121;28;20465;-75
2022/04/13 02:14:33;;;;;;;11.63;8.70;;;9.80;89.60;;;;;;5115958;28;20460;-74
2022/04/13 02:17:00;;;;;;;12.83;9.40;;;9.80;89.70;;;;;;5116208;28;20448;-74
2022/04/13 02:19:26;;;;;;;11.00;9.57;;;9.80;90.30;;;;;;5115525;28;20452;-74
2022/04/13 02:21:53;;;;;;;11.70;9.20;;;9.70;90.90;;;;;;5116169;28;20470;-75
2022/04/13 02:24:20;;;;;;;9.83;8.37;;;9.70;91.20;;;;;;5116023;28;20464;-74
2022/04/13 02:26:46;;;;;;;11.53;8.90;;;9.70;91.90;;;;;;5116374;28;20483;-74
2022/04/13 02:29:14;;;;;;;12.73;9.57;;;9.60;92.40;;;;;;5116110;28;20936;-74
2022/04/13 02:31:42;;;;;;;14.13;9.20;;;9.60;93.30;;;;;;5115723;28;20453;-74
2022/04/13 02:34:09;;;;;;;13.23;9.10;;;9.70;93.40;;;;;;5115965;28;20456;-73
2022/04/13 02:36:35;;;;;;;10.67;8.40;;;9.60;93.60;;;;;;5115463;28;20448;-74
2022/04/13 02:39:02;;;;;;;11.33;9.23;;;9.60;94.20;;;;;;5115125;28;20452;-74
2022/04/13 02:41:29;;;;;;;10.97;7.93;;;9.50;94.80;;;;;;5115393;28;20456;-73
2022/04/13 02:43:56;;;;;;;14.27;9.60;;;9.60;95.00;;;;;;5115544;28;20453;-72
2022/04/13 02:46:23;;;;;;;16.83;8.63;;;9.50;95.70;;;;;;5114739;28;20463;-72
2022/04/13 02:48:50;;;;;;;11.87;9.10;;;9.50;96.30;;;;;;5115335;28;20455;-72
2022/04/13 02:51:17;;;;;;;10.90;8.30;;;9.50;96.60;;;;;;5115012;28;20954;-74
2022/04/13 02:53:44;;;;;;;13.53;9.70;;;9.50;97.10;;;;;;5115355;28;20456;-74
2022/04/13 02:56:11;;;;;;;10.07;8.60;;;9.50;97.60;;;;;;5114703;28;20920;-74
2022/04/13 02:58:37;;;;;;;13.17;8.77;;;9.50;98.00;;;;;;5114871;28;20937;-74
2022/04/13 03:01:06;;;;;;;10.90;9.13;;;9.50;98.50;;;;;;5115495;28;20470;-74
2022/04/13 03:03:33;;;;;;;11.47;8.50;;;9.50;98.60;;;;;;5115172;28;20505;-74
2022/04/13 03:06:01;;;;;;;11.67;9.10;;;9.40;99.30;;;;;;5114640;28;20513;-74
2022/04/13 03:08:28;;;;;;;13.23;9.80;;;9.40;99.70;;;;;;5114873;28;20785;-73
2022/04/13 03:10:54;;;;;;;11.30;9.10;;;9.40;99.90;;;;;;5114938;28;20827;-73
2022/04/13 03:13:21;;;;;;;9.97;8.40;;;9.40;99.90;;;;;;5114882;28;20838;-73
2022/04/13 03:15:48;;;;;;;12.20;9.10;;;9.30;99.90;;;;;;5114886;28;20467;-73
2022/04/13 03:18:14;;;;;;;12.83;9.63;;;9.30;99.90;;;;;;5115224;28;20931;-73
2022/04/13 03:20:41;;;;;;;12.03;9.10;;;9.20;99.90;;;;;;5119050;28;20452;-72
2022/04/13 03:23:09;;;;;;;10.40;8.80;;;9.20;99.90;;;;;;5118858;28;20463;-74
2022/04/13 03:25:36;;;;;;;16.47;9.63;;;9.10;99.90;;;;;;5119521;28;20787;-74
2022/04/13 03:28:02;;;;;;;10.77;8.80;;;9.10;99.90;;;;;;5118770;28;20476;-73
2022/04/13 03:30:29;;;;;;;13.40;10.00;;;9.00;99.90;;;;;;5118973;28;20467;-74
2022/04/13 03:32:56;;;;;;;12.47;10.03;;;9.00;99.90;;;;;;5118984;28;20893;-73
2022/04/13 03:35:23;;;;;;;13.03;9.30;;;9.00;99.90;;;;;;5118948;28;20468;-74
2022/04/13 03:37:50;;;;;;;13.43;9.83;;;9.00;99.90;;;;;;5118650;28;20893;-74
2022/04/13 03:40:18;;;;;;;10.67;9.27;;;9.00;99.90;;;;;;5118638;28;20471;-74
2022/04/13 03:42:44;;;;;;;15.80;10.20;;;8.90;99.90;;;;;;5118630;28;20452;-73
2022/04/13 03:45:13;;;;;;;12.10;9.57;;;8.90;99.90;;;;;;5118592;28;20529;-74
2022/04/13 03:47:40;;;;;;;13.83;9.80;;;8.90;99.90;;;;;;5118408;28;20551;-74
2022/04/13 03:50:08;;;;;;;13.57;9.53;;;8.90;99.90;;;;;;5118618;28;20545;-74
2022/04/13 03:52:35;;;;;;;12.23;8.90;;;8.90;99.90;;;;;;5119248;28;20467;-74
2022/04/13 03:55:03;;;;;;;12.33;9.40;;;8.90;99.90;;;;;;5119031;28;20471;-74
2022/04/13 03:57:32;;;;;;;14.20;9.50;;;8.90;99.90;;;;;;5118782;28;20794;-74
2022/04/13 03:59:59;;;;;;;10.60;8.13;;;8.80;99.90;;;;;;5118124;28;20490;-74
2022/04/13 04:02:26;;;;;;;13.37;9.53;;;8.80;99.90;;;;;;5118159;28;20927;-74
2022/04/13 04:04:52;;;;;;;13.80;9.30;;;8.80;99.90;;;;;;5118281;28;20506;-74
2022/04/13 04:07:19;;;;;;;12.80;9.20;;;8.80;99.90;;;;;;5118084;28;20475;-74
2022/04/13 04:09:46;;;;;;;14.17;9.13;;;8.80;99.90;;;;;;5118065;28;20982;-74
2022/04/13 04:12:12;;;;;;;13.23;9.50;;;8.80;99.90;;;;;;5117978;28;20841;-74
2022/04/13 04:14:40;;;;;;;13.50;9.60;;;8.80;99.90;;;;;;5118185;28;20532;-74
2022/04/13 04:17:07;;;;;;;19.80;10.27;;;8.80;99.90;;;;;;5118251;28;20796;-74
2022/04/13 04:19:34;;;;;;;14.77;9.13;;;8.80;99.90;;;;;;5118244;28;20460;-74
2022/04/13 04:22:00;;;;;;;13.10;9.70;;;8.70;99.90;;;;;;5117949;28;20455;-74
2022/04/13 04:24:27;;;;;;;10.37;8.93;;;8.70;99.90;;;;;;5117652;28;20924;-74
2022/04/13 04:26:54;;;;;;;16.47;9.57;;;8.70;99.90;;;;;;5117920;28;20836;-74
2022/04/13 04:29:22;;;;;;;16.87;10.53;;;8.70;99.90;;;;;;5117508;28;20456;-74
2022/04/13 04:31:53;;;;;;;14.70;11.00;;;8.70;99.90;;;;;;5117114;28;20452;-74
2022/04/13 04:34:22;;;;;;;15.00;10.63;;;8.70;99.90;;;;;;5117937;28;20440;-74
2022/04/13 04:36:49;;;;;;;13.17;10.00;;;8.70;99.90;;;;;;5117706;28;20452;-74
2022/04/13 04:39:15;;;;;;;12.03;9.53;;;8.70;99.90;;;;;;5118034;28;20467;-74
2022/04/13 04:41:42;;;;;;;12.90;9.37;;;8.70;99.90;;;;;;5117469;28;20464;-74
2022/04/13 04:44:10;;;;;;;11.03;8.93;;;8.70;99.90;;;;;;5117692;28;20469;-74
2022/04/13 04:46:38;;;;;;;13.20;9.33;;;8.70;99.90;;;;;;5117457;28;20916;-74
2022/04/13 04:49:07;;;;;;;14.87;9.20;;;8.70;99.90;;;;;;5117420;28;20472;-74
2022/04/13 04:51:34;;;;;;;18.07;9.97;;;8.70;99.90;;;;;;5117124;28;20916;-74
2022/04/13 04:54:02;;;;;;;15.60;10.10;;;8.80;99.90;;;;;;5117662;28;20456;-74
2022/04/13 04:56:29;;;;;;;11.00;9.40;;;8.80;99.90;;;;;;5117298;28;20498;-74
2022/04/13 04:58:56;;;;;;;13.20;9.60;;;8.80;99.90;;;;;;5117205;28;20449;-74
2022/04/13 05:01:23;;;;;;;14.20;9.60;;;8.80;99.90;;;;;;5117084;28;20456;-74
2022/04/13 05:03:50;;;;;;;11.87;9.10;;;8.90;99.90;;;;;;5117266;28;20460;-74
2022/04/13 05:06:21;;;;;;;12.00;9.57;;;8.90;99.90;;;;;;5117074;28;20529;-74
2022/04/13 05:08:48;;;;;;;10.90;8.77;;;8.90;99.90;;;;;;5116982;28;20500;-74
2022/04/13 05:11:15;;;;;;;11.93;8.47;;;8.90;99.90;;;;;;5116748;28;20464;-73
2022/04/13 05:13:45;;;;;;;12.57;9.97;;;9.00;99.90;;;;;;5117190;28;20460;-73
2022/04/13 05:16:12;;;;;;;15.60;10.27;;;9.00;99.90;;;;;;5116412;28;20967;-73
2022/04/13 05:18:39;;;;;;;13.30;9.97;;;9.10;99.90;;;;;;5116688;28;20448;-73
2022/04/13 05:21:06;;;;;;;13.07;9.67;;;9.10;99.90;;;;;;5116433;28;20452;-73
2022/04/13 05:23:34;;;;;;;13.40;9.77;;;9.10;99.90;;;;;;5116798;28;20484;-73
2022/04/13 05:26:00;;;;;;;13.37;10.77;;;9.10;99.90;;;;;;5116710;28;20467;-73
2022/04/13 05:28:27;;;;;;;13.70;10.23;;;9.20;99.90;;;;;;5116602;28;20761;-73
2022/04/13 05:30:57;;;;;;;15.97;10.53;;;9.20;99.90;;;;;;5116723;28;20464;-73
2022/04/13 05:33:23;;;;;;;15.93;10.43;;;9.20;99.90;;;;;;5116668;28;20781;-73
2022/04/13 05:35:51;;;;;;;14.53;9.27;;;9.30;99.90;;;;;;5116313;28;20467;-73
2022/04/13 05:38:18;;;;;;;12.10;9.40;;;9.30;99.90;;;;;;5116148;28;20521;-73
2022/04/13 05:40:46;;;;;;;14.33;9.23;;;9.30;99.90;;;;;;5116626;28;20471;-73
2022/04/13 05:43:13;;;;;;;12.13;9.50;;;9.30;99.90;;;;;;5115995;28;20521;-73
2022/04/13 05:45:40;;;;;;;13.83;9.80;;;9.40;99.90;;;;;;5116004;28;20560;-73
2022/04/13 05:48:09;;;;;;;13.53;9.13;;;9.50;99.90;;;;;;5116179;28;20541;-73
2022/04/13 05:50:36;;;;;;;14.73;9.70;;;9.50;99.90;;;;;;5116147;28;20531;-73
2022/04/13 05:53:03;;;;;;;12.20;9.73;;;9.60;99.90;;;;;;5116302;28;20464;-73
2022/04/13 05:55:29;;;;;;;15.20;9.63;;;9.60;99.90;;;;;;5116845;28;20507;-73
2022/04/13 05:57:58;;;;;;;12.33;9.87;;;9.70;99.90;;;;;;5117205;28;20493;-73
2022/04/13 06:00:24;;;;;;;13.97;9.90;;;9.80;99.90;;;;;;5118014;28;20770;-74
2022/04/13 06:02:52;;;;;;;13.03;10.30;;;9.90;99.90;;;;;;5116060;28;20916;-73
2022/04/13 06:05:20;;;;;;;13.30;9.33;;;9.90;99.90;;;;;;5115970;28;20456;-74
2022/04/13 06:07:47;;;;;;;12.53;10.43;;;9.90;99.90;;;;;;5116817;28;20516;-73
2022/04/13 06:10:15;;;;;;;12.50;9.40;;;9.90;99.90;;;;;;5115851;28;20449;-73
2022/04/13 06:12:44;;;;;;;15.03;10.10;;;10.00;99.90;;;;;;5115737;28;20537;-73
2022/04/13 06:15:13;;;;;;;13.20;10.27;;;10.00;99.90;;;;;;5115795;28;20463;-73
2022/04/13 06:17:40;;;;;;;15.20;9.93;;;10.00;99.90;;;;;;5115699;28;20480;-73
2022/04/13 06:20:08;;;;;;;14.70;10.00;;;10.10;99.90;;;;;;5115644;28;20468;-73
2022/04/13 06:22:39;;;;;;;15.10;11.10;;;10.20;99.90;;;;;;5115655;28;20799;-73
2022/04/13 06:25:06;;;;;;;17.03;10.87;;;10.40;99.90;;;;;;5115315;28;20463;-73
2022/04/13 06:27:33;;;;;;;14.70;10.93;;;10.50;99.90;;;;;;5115334;28;20463;-72
2022/04/13 06:30:00;;;;;;;13.70;9.07;;;10.60;99.90;;;;;;5115381;28;20480;-74
2022/04/13 06:32:33;;;;;;;15.87;9.93;;;10.70;99.90;;;;;;5114516;28;20463;-73
2022/04/13 06:35:00;;;;;;;12.73;9.83;;;10.70;99.90;;;;;;5115442;28;20456;-74
2022/04/13 06:37:27;;;;;;;13.30;9.70;;;10.80;99.90;;;;;;5115091;28;20853;-74
2022/04/13 06:39:54;;;;;;;16.20;11.00;;;10.80;99.90;;;;;;5115039;28;20456;-74
2022/04/13 06:42:22;;;;;;;14.83;10.00;;;10.90;99.90;;;;;;5114919;28;20461;-73
2022/04/13 06:44:50;;;;;;;13.57;9.80;;;11.00;99.90;;;;;;5115070;28;20464;-73
2022/04/13 06:47:18;;;;;;;15.00;11.53;;;11.10;99.90;;;;;;5115211;28;20468;-74
2022/04/13 06:49:46;;;;;;;15.10;9.47;;;11.20;99.90;;;;;;5114420;28;20472;-74
2022/04/13 06:52:13;;;;;;;14.37;9.73;;;11.20;99.90;;;;;;5114414;28;20467;-74
2022/04/13 06:54:40;;;;;;;11.70;9.17;;;11.30;99.90;;;;;;5114396;28;20467;-74
2022/04/13 06:57:07;;;;;;;12.20;10.03;;;11.30;99.90;;;;;;5114967;28;20537;-74
2022/04/13 06:59:34;;;;;;;14.37;8.77;;;11.40;99.90;;;;;;5114940;28;20453;-74
2022/04/13 07:02:01;;;;;;;15.00;10.50;;;11.50;99.90;;;;;;5114890;28;20767;-73
2022/04/13 07:04:28;;;;;;;16.43;9.90;;;11.60;99.90;;;;;;5115396;28;20834;-74
2022/04/13 07:06:58;;;;;;;19.13;9.90;;;11.70;99.90;;;;;;5115328;28;20449;-73
2022/04/13 07:09:25;;;;;;;32.83;11.80;;;11.70;99.90;;;;;;5115524;28;20495;-74
2022/04/13 07:11:52;;;;;;;15.43;9.30;;;11.80;99.90;;;;;;5115333;28;20464;-75
2022/04/13 07:14:19;;;;;;;18.20;9.53;;;11.80;99.90;;;;;;5115797;28;20467;-73
2022/04/13 07:16:46;;;;;;;12.37;8.53;;;11.90;99.90;;;;;;5115242;28;20563;-74
2022/04/13 07:19:12;;;;;;;14.03;10.00;;;12.00;99.90;;;;;;5114483;28;20461;-74
2022/04/13 07:21:39;;;;;;;15.63;9.73;;;12.10;99.90;;;;;;5114892;28;20510;-73
2022/04/13 07:24:08;;;;;;;14.90;8.87;;;12.30;99.90;;;;;;5114608;28;20453;-73
2022/04/13 07:26:34;;;;;;;12.23;9.80;;;12.30;99.90;;;;;;5114956;28;20463;-73
2022/04/13 07:29:01;;;;;;;13.90;9.43;;;12.40;99.90;;;;;;5114113;28;20480;-73
2022/04/13 07:31:28;;;;;;;14.37;9.50;;;12.50;99.90;;;;;;5114579;28;20513;-74
2022/04/13 07:33:55;;;;;;;13.83;9.23;;;12.60;99.90;;;;;;5114613;28;20456;-74
2022/04/13 07:36:22;;;;;;;12.70;8.93;;;12.70;99.90;;;;;;5114590;28;20452;-74
2022/04/13 07:38:50;;;;;;;11.17;8.43;;;12.80;99.90;;;;;;5114361;28;20489;-74
2022/04/13 07:41:18;;;;;;;12.03;7.80;;;12.90;99.90;;;;;;5114646;28;20456;-74
2022/04/13 07:43:44;;;;;;;14.60;8.93;;;13.10;99.90;;;;;;5114204;28;20501;-74
2022/04/13 07:46:11;;;;;;;10.90;8.30;;;13.20;99.90;;;;;;5114404;28;20479;-74
2022/04/13 07:48:38;;;;;;;13.93;9.10;;;13.30;99.60;;;;;;5114593;28;20490;-74
2022/04/13 07:51:05;;;;;;;13.07;8.40;;;13.40;98.50;;;;;;5114323;28;20487;-74
2022/04/13 07:53:31;;;;;;;16.53;9.33;;;13.50;97.70;;;;;;5114232;28;20935;-74
2022/04/13 07:55:58;;;;;;;11.53;8.00;;;13.60;97.40;;;;;;5114187;28;20848;-74
2022/04/13 07:58:26;;;;;;;14.13;8.50;;;13.70;97.40;;;;;;5114340;28;20459;-74
2022/04/13 08:00:53;;;;;;;12.83;8.60;;;13.80;96.30;;;;;;5114631;28;20456;-74
2022/04/13 08:03:19;;;;;;;14.67;8.60;;;13.90;95.70;;;;;;5114139;28;20467;-74
2022/04/13 08:05:46;;;;;;;12.33;8.13;;;14.10;95.20;;;;;;5115728;28;20965;-73
2022/04/13 08:08:13;;;;;;;13.30;8.77;;;14.20;94.20;;;;;;5118200;28;20486;-74
2022/04/13 08:10:39;;;;;;;10.60;7.80;;;14.30;93.80;;;;;;5118078;28;20925;-74
2022/04/13 08:13:06;;;;;;;11.93;8.67;;;14.30;93.30;;;;;;5118561;28;20460;-74
2022/04/13 08:15:34;;;;;;;11.87;8.30;;;14.30;93.50;;;;;;5118107;28;20483;-74
2022/04/13 08:18:01;;;;;;;11.50;8.20;;;14.40;92.40;;;;;;5117959;28;20464;-73
2022/04/13 08:20:28;;;;;;;11.30;8.60;;;14.50;92.60;;;;;;5117983;28;20550;-74
2022/04/13 08:22:54;;;;;;;14.30;8.37;;;14.60;92.30;;;;;;5118280;28;20467;-73
2022/04/13 08:25:21;;;;;;;14.93;8.50;;;14.70;91.90;;;;;;5118093;28;20768;-75
2022/04/13 08:27:48;;;;;;;13.60;8.90;;;14.90;91.70;;;;;;5117605;28;20456;-73
2022/04/13 08:30:15;;;;;;;14.57;10.57;;;15.00;91.20;;;;;;5118008;28;20487;-75
2022/04/13 08:32:43;;;;;;;21.60;9.33;;;15.10;90.90;;;;;;5117875;28;20475;-75
2022/04/13 08:35:11;;;;;;;16.07;9.80;;;15.30;90.30;;;;;;5117832;28;20456;-75
2022/04/13 08:37:38;;;;;;;12.67;8.77;;;15.40;88.90;;;;;;5117300;28;20914;-75
2022/04/13 08:40:05;;;;;;;11.10;8.60;;;15.50;88.30;;;;;;5117755;28;20781;-74
2022/04/13 08:42:40;;;;;;;12.70;9.30;;;15.60;86.90;;;;;;5117901;28;20453;-74
2022/04/13 08:45:18;;;;;;;14.53;8.40;;;15.60;85.40;;;;;;5117502;28;20468;-74
2022/04/13 08:47:48;;;;;;;13.50;8.60;;;15.60;85.10;;;;;;5117498;28;20440;-74
2022/04/13 08:50:15;;;;;;;9.73;7.80;;;15.70;83.90;;;;;;5117472;28;20491;-75
2022/04/13 08:52:43;;;;;;;12.40;8.60;;;15.70;83.30;;;;;;5117439;28;20460;-75
2022/04/13 08:55:11;;;;;;;11.60;8.20;;;15.80;82.70;;;;;;5117083;28;20499;-75
2022/04/13 08:57:41;;;;;;;12.80;8.63;;;15.90;83.30;;;;;;5116669;28;20849;-74
2022/04/13 09:00:10;;;;;;;10.57;7.70;;;15.90;82.70;;;;;;5117186;28;20865;-74
2022/04/13 09:03:09;;;;;;;12.97;8.53;;;16.00;80.80;;;;;;5117064;28;20467;-75
2022/04/13 09:05:37;;;;;;;13.13;8.10;;;16.00;80.20;;;;;;5116905;28;20448;-74
2022/04/13 09:08:08;;;;;;;13.03;8.80;;;16.10;80.20;;;;;;5116691;28;20920;-74
2022/04/13 09:10:37;;;;;;;13.40;9.07;;;16.10;78.70;;;;;;5117316;28;20560;-74
2022/04/13 09:13:08;;;;;;;14.93;10.97;;;16.10;79.00;;;;;;5116956;28;20457;-74
2022/04/13 09:15:37;;;;;;;15.77;9.63;;;16.20;78.30;;;;;;5116747;28;20760;-75
2022/04/13 09:18:07;;;;;;;11.53;8.53;;;16.30;79.40;;;;;;5116637;28;20480;-74
2022/04/13 09:20:34;;;;;;;12.67;8.30;;;16.40;78.40;;;;;;5116656;28;20452;-74
2022/04/13 09:23:01;;;;;;;12.03;9.20;;;16.60;77.80;;;;;;5116556;28;20551;-75
2022/04/13 09:25:30;;;;;;;13.53;8.30;;;16.70;76.80;;;;;;5116403;28;20513;-75
2022/04/13 09:27:58;;;;;;;14.80;10.10;;;16.80;75.80;;;;;;5116393;28;20456;-75
2022/04/13 09:30:25;;;;;;;13.67;8.60;;;17.00;74.40;;;;;;5116313;28;20956;-78
2022/04/13 09:32:52;;;;;;;12.77;9.47;;;17.10;73.30;;;;;;5116306;28;20531;-75
2022/04/13 09:35:21;;;;;;;13.13;8.90;;;17.20;71.00;;;;;;5116667;28;20457;-74
2022/04/13 09:37:48;;;;;;;11.27;8.23;;;17.20;70.10;;;;;;5116527;28;20513;-74
2022/04/13 09:40:36;;;;;;;14.03;8.77;;;17.20;70.80;;;;;;5116438;28;20449;-75
2022/04/13 09:43:07;;;;;;;10.60;7.70;;;17.30;68.00;;;;;;5116555;28;20909;-74
2022/04/13 09:45:35;;;;;;;11.23;8.30;;;17.40;68.40;;;;;;5116148;28;20534;-74
2022/04/13 09:48:06;;;;;;;10.37;8.20;;;17.50;68.90;;;;;;5115821;28;20456;-74
2022/04/13 09:50:35;;;;;;;9.77;7.60;;;17.70;68.50;;;;;;5116261;28;20529;-74
2022/04/13 09:53:05;;;;;;;10.87;7.63;;;17.80;66.70;;;;;;5116209;28;20533;-75
2022/04/13 09:55:34;;;;;;;11.40;7.90;;;17.90;65.10;;;;;;5116065;28;20490;-74
2022/04/13 09:58:09;;;;;;;11.23;8.00;;;18.00;64.70;;;;;;5116396;28;20526;-74
2022/04/13 10:00:36;;;;;;;12.23;8.17;;;18.00;63.40;;;;;;5116141;28;20447;-74
2022/04/13 10:03:11;;;;;;;10.60;7.63;;;18.00;63.80;;;;;;5115414;28;20463;-74
2022/04/13 10:05:42;;;;;;;12.00;8.30;;;18.10;62.60;;;;;;5115665;28;20468;-74
2022/04/13 10:08:09;;;;;;;10.60;8.40;;;18.00;62.50;;;;;;5115969;28;20437;-75
2022/04/13 10:10:40;;;;;;;10.57;8.03;;;18.10;62.50;;;;;;5115255;28;20484;-74
2022/04/13 10:13:06;;;;;;;12.60;8.57;;;18.20;61.30;;;;;;5115847;28;20445;-73
2022/04/13 10:15:33;;;;;;;12.17;8.13;;;18.40;60.80;;;;;;5115730;28;20487;-73
2022/04/13 10:18:01;;;;;;;9.83;7.77;;;18.50;60.20;;;;;;5115426;28;20822;-74
2022/04/13 10:20:44;;;;;;;12.23;7.80;;;18.50;59.60;;;;;;5115468;28;20729;-74
2022/04/13 10:23:11;;;;;;;11.77;8.37;;;18.60;59.50;;;;;;5115326;28;20479;-74
2022/04/13 10:25:38;;;;;;;11.27;8.03;;;18.80;59.40;;;;;;5115524;28;20463;-74
2022/04/13 10:28:06;;;;;;;10.83;7.73;;;18.90;58.40;;;;;;5114850;28;20456;-74
2022/04/13 10:30:34;;;;;;;12.67;7.93;;;19.00;57.70;;;;;;5114938;28;20476;-75
2022/04/13 10:33:02;;;;;;;9.87;6.97;;;19.10;57.50;;;;;;5115520;28;20457;-75
2022/04/13 10:35:30;;;;;;;13.63;7.73;;;19.20;57.10;;;;;;5115297;28;20465;-73
2022/04/13 10:37:58;;;;;;;10.40;7.53;;;19.40;55.70;;;;;;5115402;28;20787;-74
2022/04/13 10:40:26;;;;;;;10.10;7.67;;;19.30;54.90;;;;;;5115131;28;20462;-73
2022/04/13 10:42:57;;;;;;;12.37;7.23;;;19.20;55.30;;;;;;5115417;28;20558;-74
2022/04/13 10:45:24;;;;;;;7.70;6.90;;;19.30;55.30;;;;;;5115825;28;20436;-74
2022/04/13 10:47:56;;;;;;;9.87;6.83;;;19.40;55.10;;;;;;5115277;28;20530;-74
2022/04/13 10:50:30;;;;;;;9.47;7.27;;;19.40;54.40;;;;;;5114936;28;20468;-74
2022/04/13 10:53:00;;;;;;;9.90;7.77;;;19.60;53.50;;;;;;5114988;28;20432;-74
2022/04/13 10:55:29;;;;;;;9.07;7.17;;;19.60;53.70;;;;;;5115438;28;20808;-74
2022/04/13 10:58:02;;;;;;;12.80;8.00;;;19.60;54.20;;;;;;5114377;28;20920;-74
2022/04/13 11:00:32;;;;;;;8.83;7.70;;;19.60;53.30;;;;;;5120282;28;20476;-74
2022/04/13 11:03:02;;;;;;;10.80;7.70;;;19.60;53.70;;;;;;5118996;28;20461;-74
2022/04/13 11:05:30;;;;;;;12.90;7.83;;;19.80;53.70;;;;;;5121097;28;20440;-74
2022/04/13 11:08:10;;;;;;;9.40;7.07;;;19.90;53.50;;;;;;5114716;28;20459;-74
2022/04/13 11:10:37;;;;;;;10.07;7.70;;;20.00;53.30;;;;;;5114532;28;20948;-74
2022/04/13 11:13:04;;;;;;;11.30;7.57;;;20.10;53.40;;;;;;5115114;28;20463;-74
2022/04/13 11:15:42;;;;;;;10.13;7.50;;;20.30;52.70;;;;;;5114855;28;20534;-74
2022/04/13 11:18:10;;;;;;;8.87;6.93;;;20.30;52.20;;;;;;5114757;28;20521;-74
2022/04/13 11:20:38;;;;;;;11.50;7.10;;;20.30;51.60;;;;;;5115813;28;20516;-74
2022/04/13 11:23:12;;;;;;;10.47;7.30;;;20.30;51.80;;;;;;5115486;28;20453;-74
2022/04/13 11:25:51;;;;;;;8.77;6.80;;;20.60;51.60;;;;;;5116347;28;20440;-75
2022/04/13 11:28:25;;;;;;;12.63;7.17;;;21.00;51.70;;;;;;5116439;28;20517;-74
2022/04/13 11:31:03;;;;;;;12.30;6.90;;;21.40;50.60;;;;;;5118528;28;20523;-74
2022/04/13 11:33:50;;;;;;;8.70;6.60;;;22.00;48.90;;;;;;5115358;28;20472;-75
2022/04/13 11:36:18;;;;;;;9.40;6.83;;;22.80;48.10;;;;;;5115227;28;20445;-75
2022/04/13 11:38:53;;;;;;;8.10;5.30;;;23.60;47.00;;;;;;5114494;28;20781;-75
2022/04/13 11:41:20;;;;;;;9.03;6.40;;;24.40;45.10;;;;;;5120942;28;20436;-74
2022/04/13 11:43:48;;;;;;;13.93;6.20;;;25.40;42.50;;;;;;5119711;28;20453;-74
2022/04/13 11:46:35;;;;;;;10.17;7.03;;;25.80;40.40;;;;;;5118873;28;20452;-73
2022/04/13 11:49:01;;;;;;;10.53;7.70;;;26.40;39.70;;;;;;5119087;28;20488;-74
2022/04/13 11:51:30;;;;;;;11.87;6.73;;;26.90;37.20;;;;;;5118277;28;20476;-73
2022/04/13 11:54:06;;;;;;;8.20;6.33;;;26.70;36.70;;;;;;5118484;28;20924;-74
2022/04/13 11:56:40;;;;;;;8.93;6.50;;;26.80;36.20;;;;;;5118080;28;20487;-75
2022/04/13 11:59:08;;;;;;;10.70;5.80;;;27.00;34.10;;;;;;5119064;28;20432;-74
2022/04/13 12:01:35;;;;;;;8.67;7.07;;;27.30;33.30;;;;;;5119193;28;20448;-74
2022/04/13 12:04:06;;;;;;;8.73;6.80;;;27.90;32.90;;;;;;5118886;28;20509;-75
2022/04/13 12:06:33;;;;;;;9.00;6.63;;;28.00;31.20;;;;;;5119342;28;20436;-75
2022/04/13 12:09:02;;;;;;;9.40;6.50;;;28.20;30.30;;;;;;5118112;28;20456;-74
2022/04/13 12:11:41;;;;;;;6.53;5.77;;;27.80;30.90;;;;;;5118619;28;20529;-74
2022/04/13 12:14:09;;;;;;;6.03;5.37;;;28.40;30.70;;;;;;5118313;28;20474;-74
2022/04/13 12:16:38;;;;;;;8.20;6.27;;;28.70;29.90;;;;;;5117739;28;20456;-74
2022/04/13 12:19:07;;;;;;;7.77;5.63;;;28.80;29.30;;;;;;5117867;28;20833;-74
2022/04/13 12:21:36;;;;;;;8.30;6.37;;;28.60;28.40;;;;;;5117652;28;20456;-74
2022/04/13 12:24:05;;;;;;;6.83;5.80;;;28.40;28.30;;;;;;5117333;28;20460;-74
2022/04/13 12:26:34;;;;;;;9.43;6.57;;;28.30;29.10;;;;;;5117744;28;20456;-75
2022/04/13 12:29:03;;;;;;;5.97;5.37;;;28.10;28.70;;;;;;5119944;28;20456;-74
2022/04/13 12:31:30;;;;;;;11.53;5.97;;;28.20;29.20;;;;;;5119398;28;20468;-74
2022/04/13 12:34:01;;;;;;;7.50;6.10;;;29.00;28.80;;;;;;5121563;28;20456;-75
2022/04/13 12:36:28;;;;;;;11.70;6.40;;;29.60;27.90;;;;;;5119746;28;20535;-74
2022/04/13 12:38:57;;;;;;;8.53;5.03;;;29.50;26.90;;;;;;5117309;28;20863;-75
2022/04/13 12:41:28;;;;;;;7.97;5.53;;;29.60;27.40;;;;;;5117916;28;20456;-74
2022/04/13 12:43:58;;;;;;;7.20;5.40;;;30.20;27.30;;;;;;5117382;28;20453;-74
2022/04/13 12:46:27;;;;;;;7.80;6.67;;;30.40;26.00;;;;;;5117615;28;20513;-74